Time;durP1;ratioP1;P1;durP2;ratioP2;P2;SDS_P1;SDS_P2;PMS_P1;PMS_P2;Temp;Humidity;BMP_temperature;BMP_pressure;BME280_temperature;BME280_humidity;BME280_pressure;Samples;Min_cycle;Max_cycle;Signal;HPM_P1;HPM_P2
2022/05/07 00:01:25;;;;;;;11.63;7.12;;;;;;;11.73;100.00;102492.97;1931623;72;21133;-71
2022/05/07 00:03:53;;;;;;;11.75;6.15;;;;;;;11.66;100.00;102498.77;1951279;72;21587;-71
2022/05/07 00:06:20;;;;;;;10.82;6.20;;;;;;;11.65;100.00;102493.17;1951283;72;21005;-71
2022/05/07 00:08:48;;;;;;;14.05;6.53;;;;;;;11.53;100.00;102495.86;1951404;72;21083;-71
2022/05/07 00:11:20;;;;;;;10.88;7.10;;;;;;;11.65;100.00;102501.75;1955688;73;21466;-71
2022/05/07 00:13:45;;;;;;;14.25;7.05;;;;;;;11.51;100.00;102494.08;1955479;72;21053;-72
2022/05/07 00:18:58;;;;;;;12.37;6.47;;;;;;;11.56;100.00;102495.07;1955981;73;21053;-72
2022/05/07 00:21:25;;;;;;;11.20;6.85;;;;;;;11.47;100.00;102489.24;1955820;72;21169;-72
2022/05/07 00:23:53;;;;;;;14.03;7.20;;;;;;;11.47;100.00;102491.41;1955977;72;21029;-72
2022/05/07 00:26:20;;;;;;;9.80;6.30;;;;;;;11.53;100.00;102484.68;1955565;72;21096;-72
2022/05/07 00:28:48;;;;;;;12.13;7.42;;;;;;;11.57;100.00;102490.38;1958015;73;21057;-72
2022/05/07 00:31:15;;;;;;;12.53;6.60;;;;;;;11.20;100.00;102478.64;1956016;73;21049;-72
2022/05/07 00:33:43;;;;;;;11.20;7.05;;;;;;;11.29;100.00;102484.04;1955980;72;21117;-72
2022/05/07 00:36:10;;;;;;;10.18;6.25;;;;;;;11.41;100.00;102478.80;1956154;72;21128;-72
2022/05/07 00:38:38;;;;;;;11.85;7.10;;;;;;;11.41;100.00;102486.52;1955885;73;21057;-72
2022/05/07 00:41:05;;;;;;;12.68;7.28;;;;;;;11.40;100.00;102488.20;1955887;73;21536;-72
2022/05/07 00:43:38;;;;;;;14.47;7.53;;;;;;;11.21;100.00;102477.80;1955964;72;21003;-72
2022/05/07 00:46:06;;;;;;;12.68;6.60;;;;;;;11.40;100.00;102483.48;1955420;72;21171;-72
2022/05/07 00:48:34;;;;;;;12.75;7.25;;;;;;;11.30;100.00;102481.92;1951224;72;21098;-72
2022/05/07 00:53:49;;;;;;;9.75;5.87;;;;;;;11.25;100.00;102472.31;1951386;72;21164;-72
2022/05/07 00:56:17;;;;;;;12.90;7.58;;;;;;;11.20;100.00;102466.63;1928730;73;21123;-72
2022/05/07 00:58:44;;;;;;;11.15;6.60;;;;;;;11.25;100.00;102473.20;1918251;73;21143;-71
2022/05/07 01:01:12;;;;;;;11.45;6.78;;;;;;;11.38;100.00;102476.12;1936328;74;21528;-72
2022/05/07 01:03:39;;;;;;;12.50;7.53;;;;;;;11.29;100.00;102469.89;1936703;74;21027;-72
2022/05/07 01:06:09;;;;;;;10.68;7.05;;;;;;;11.25;100.00;102473.20;1906417;73;21151;-72
2022/05/07 01:08:37;;;;;;;11.43;6.55;;;;;;;11.35;100.00;102471.37;1929314;74;21086;-72
2022/05/07 01:11:04;;;;;;;11.10;5.78;;;;;;;11.58;100.00;102471.55;1929322;73;21124;-72
2022/05/07 01:13:32;;;;;;;13.32;7.35;;;;;;;11.53;100.00;102473.98;1910501;74;21034;-72
2022/05/07 01:16:00;;;;;;;11.55;7.28;;;;;;;11.42;100.00;102470.23;1936514;74;21127;-72
2022/05/07 01:18:27;;;;;;;13.00;7.65;;;;;;;11.40;100.00;102473.20;1936495;74;21668;-72
2022/05/07 01:20:57;;;;;;;10.63;6.35;;;;;;;11.21;100.00;102472.26;1936653;74;21146;-72
2022/05/07 01:23:27;;;;;;;15.50;6.92;;;;;;;11.31;100.00;102473.80;1935884;74;21211;-72
2022/05/07 01:25:57;;;;;;;11.43;6.92;;;;;;;11.18;100.00;102477.30;1936624;74;21090;-72
2022/05/07 01:28:24;;;;;;;14.60;6.95;;;;;;;11.26;100.00;102466.37;1936323;72;21042;-72
2022/05/07 01:30:52;;;;;;;10.82;6.90;;;;;;;11.25;100.00;102469.34;1936394;73;21019;-72
2022/05/07 01:33:20;;;;;;;10.78;7.10;;;;;;;11.39;100.00;102466.28;1936576;74;21198;-72
2022/05/07 01:35:47;;;;;;;12.03;7.35;;;;;;;11.45;100.00;102468.64;1936630;74;21126;-72
2022/05/07 01:38:14;;;;;;;11.60;7.05;;;;;;;11.35;100.00;102458.90;1936387;73;21090;-72
2022/05/07 01:40:42;;;;;;;11.22;6.72;;;;;;;11.39;100.00;102457.27;1936469;74;21026;-72
2022/05/07 01:43:09;;;;;;;11.08;6.30;;;;;;;11.43;100.00;102460.39;1936873;73;21042;-72
2022/05/07 01:45:37;;;;;;;12.20;6.83;;;;;;;11.44;100.00;102464.30;1935830;73;21258;-72
2022/05/07 01:48:10;;;;;;;11.12;6.90;;;;;;;11.21;100.00;102457.22;1936516;72;21136;-72
2022/05/07 01:50:39;;;;;;;11.60;7.20;;;;;;;11.21;100.00;102453.36;1936498;74;21181;-71
2022/05/07 01:53:12;;;;;;;13.70;7.12;;;;;;;11.22;100.00;102459.84;1936515;73;21075;-72
2022/05/07 01:55:39;;;;;;;11.43;6.55;;;;;;;11.08;100.00;102456.87;1908357;74;21074;-72
2022/05/07 01:58:07;;;;;;;11.43;6.75;;;;;;;11.10;100.00;102462.06;1942646;72;21081;-72
2022/05/07 02:00:35;;;;;;;12.43;6.08;;;;;;;11.12;100.00;102465.97;1959728;72;21123;-72
2022/05/07 02:03:03;;;;;;;12.68;7.25;;;;;;;11.21;100.00;102468.80;1921086;72;21021;-72
2022/05/07 02:05:30;;;;;;;12.60;7.28;;;;;;;11.18;100.00;102476.42;1958347;72;21074;-72
2022/05/07 02:07:58;;;;;;;12.35;7.42;;;;;;;11.05;100.00;102468.75;1957663;72;21156;-71
2022/05/07 02:10:26;;;;;;;11.28;6.47;;;;;;;10.90;100.00;102469.17;1961728;72;21637;-71
2022/05/07 02:12:54;;;;;;;13.08;6.42;;;;;;;10.99;100.00;102473.30;1895360;73;21022;-71
2022/05/07 02:15:21;;;;;;;12.07;6.45;;;;;;;10.82;100.00;102468.52;1962357;72;21089;-72
2022/05/07 02:17:49;;;;;;;13.18;6.90;;;;;;;10.76;100.00;102464.48;1958363;72;21123;-72
2022/05/07 02:20:16;;;;;;;12.37;6.80;;;;;;;10.65;100.00;102474.45;1958030;72;21115;-72
2022/05/07 02:22:44;;;;;;;12.47;6.67;;;;;;;10.58;100.00;102485.35;1958338;72;21112;-72
2022/05/07 02:25:12;;;;;;;10.03;6.08;;;;;;;10.66;100.00;102489.03;1958118;72;21183;-72
2022/05/07 02:27:41;;;;;;;13.83;7.28;;;;;;;10.75;100.00;102497.43;1958529;72;21016;-72
2022/05/07 02:30:09;;;;;;;13.65;5.85;;;;;;;10.73;100.00;102490.09;1957740;72;21157;-72
2022/05/07 02:32:36;;;;;;;12.70;6.47;;;;;;;10.63;100.00;102496.64;1958371;72;21038;-72
2022/05/07 02:35:04;;;;;;;10.93;6.50;;;;;;;10.68;100.00;102498.94;1958169;72;21097;-72
2022/05/07 02:37:31;;;;;;;13.83;6.78;;;;;;;10.72;100.00;102499.93;1958451;72;21022;-72
2022/05/07 02:39:59;;;;;;;12.63;6.70;;;;;;;10.75;100.00;102503.86;1959129;71;21132;-72
2022/05/07 02:42:39;;;;;;;10.08;6.05;;;;;;;10.76;100.00;102500.88;1962847;73;21608;-72
2022/05/07 02:45:09;;;;;;;12.10;6.17;;;;;;;10.87;100.00;102505.07;1962970;72;21190;-72
2022/05/07 02:47:38;;;;;;;12.93;6.53;;;;;;;10.86;100.00;102507.19;1961793;72;21474;-72
2022/05/07 02:50:07;;;;;;;11.25;6.83;;;;;;;10.84;100.00;102506.73;1963025;71;21541;-72
2022/05/07 02:52:35;;;;;;;13.98;6.10;;;;;;;10.81;100.00;102515.63;1962438;72;21128;-72
2022/05/07 02:55:03;;;;;;;16.00;6.85;;;;;;;10.81;100.00;102521.17;1962944;72;21582;-72
2022/05/07 02:57:31;;;;;;;11.40;6.15;;;;;;;10.79;100.00;102525.02;1962624;72;21124;-72
2022/05/07 02:59:58;;;;;;;13.22;5.92;;;;;;;10.73;100.00;102523.52;1946782;72;21231;-72
2022/05/07 03:02:26;;;;;;;12.78;6.45;;;;;;;10.71;100.00;102525.16;1936345;72;21175;-72
2022/05/07 03:04:54;;;;;;;10.35;6.03;;;;;;;10.83;100.00;102524.28;1956977;72;21123;-72
2022/05/07 03:07:21;;;;;;;11.75;6.40;;;;;;;10.77;100.00;102522.79;1950642;72;21125;-72
2022/05/07 03:09:48;;;;;;;10.20;5.45;;;;;;;10.78;100.00;102521.95;1947670;72;21034;-72
2022/05/07 03:12:16;;;;;;;9.33;5.72;;;;;;;10.75;100.00;102524.42;1942484;72;21014;-71
2022/05/07 03:14:43;;;;;;;8.50;5.17;;;;;;;10.84;100.00;102524.73;1942073;73;21338;-72
2022/05/07 03:17:11;;;;;;;9.93;5.72;;;;;;;10.84;100.00;102525.14;1886645;75;21007;-72
2022/05/07 03:19:38;;;;;;;10.78;6.45;;;;;;;10.87;100.00;102530.38;1926146;74;21093;-72
2022/05/07 03:22:06;;;;;;;11.08;6.05;;;;;;;10.66;100.00;102526.71;1941968;72;21046;-72
2022/05/07 03:24:37;;;;;;;11.48;5.42;;;;;;;11.01;100.00;102540.22;1947414;73;21152;-72
2022/05/07 03:27:02;;;;;;;9.88;5.17;;;;;;;11.07;100.00;102543.88;1942381;72;21141;-72
2022/05/07 03:29:30;;;;;;;10.75;5.80;;;;;;;11.11;100.00;102553.83;1942683;74;21073;-72
2022/05/07 03:31:57;;;;;;;9.48;5.25;;;;;;;11.17;100.00;102557.02;1939578;72;21131;-72
2022/05/07 03:34:25;;;;;;;9.38;5.50;;;;;;;11.14;100.00;102559.48;1939265;72;21125;-72
2022/05/07 03:36:52;;;;;;;10.45;5.78;;;;;;;11.15;100.00;102559.94;1947081;73;21120;-72
2022/05/07 03:39:20;;;;;;;9.95;5.15;;;;;;;11.00;100.00;102556.48;1942311;72;21042;-72
2022/05/07 03:41:49;;;;;;;10.10;5.00;;;;;;;11.05;100.00;102560.95;1942274;73;21070;-72
2022/05/07 03:44:16;;;;;;;11.95;5.75;;;;;;;11.18;100.00;102567.75;1942009;74;21089;-72
2022/05/07 03:46:43;;;;;;;10.50;5.17;;;;;;;11.21;100.00;102584.58;1942244;72;21653;-72
2022/05/07 03:49:11;;;;;;;12.03;5.97;;;;;;;11.16;100.00;102588.72;1942638;74;21093;-72
2022/05/07 03:54:23;;;;;;;9.20;4.97;;;;;;;10.99;100.00;102608.33;1942435;74;21086;-72
2022/05/07 03:56:51;;;;;;;10.25;5.50;;;;;;;11.04;100.00;102620.94;1942602;73;21018;-72
2022/05/07 03:59:19;;;;;;;9.48;5.58;;;;;;;10.89;100.00;102623.86;1944720;72;21222;-71
2022/05/07 04:01:46;;;;;;;10.65;5.53;;;;;;;10.87;100.00;102626.81;1955932;72;21630;-72
2022/05/07 04:04:13;;;;;;;10.80;5.22;;;;;;;11.02;100.00;102635.44;1955837;72;21127;-72
2022/05/07 04:06:41;;;;;;;11.73;5.62;;;;;;;11.07;100.00;102637.77;1955863;72;21077;-72
2022/05/07 04:09:08;;;;;;;10.60;5.15;;;;;;;11.13;100.00;102643.92;1927222;73;21065;-72
2022/05/07 04:11:36;;;;;;;13.28;6.20;;;;;;;11.06;100.00;102648.86;1955319;73;21069;-72
2022/05/07 04:14:03;;;;;;;22.35;6.75;;;;;;;11.08;100.00;102652.38;1945716;72;21564;-72
2022/05/07 04:16:31;;;;;;;20.48;6.65;;;;;;;10.97;100.00;102649.86;1958212;73;21088;-72
2022/05/07 04:18:58;;;;;;;18.80;6.30;;;;;;;10.66;100.00;102646.25;1955757;72;21131;-72
2022/05/07 04:21:25;;;;;;;15.08;6.10;;;;;;;10.74;100.00;102652.95;1955856;72;21051;-72
2022/05/07 04:23:53;;;;;;;19.52;5.78;;;;;;;10.93;100.00;102659.58;1955866;73;21242;-72
2022/05/07 04:26:20;;;;;;;21.25;6.03;;;;;;;10.95;100.00;102670.37;1955989;72;21083;-72
2022/05/07 04:28:48;;;;;;;11.70;5.50;;;;;;;10.84;100.00;102672.59;1955921;72;21026;-72
2022/05/07 04:31:17;;;;;;;13.88;5.58;;;;;;;10.95;100.00;102681.06;1956147;72;21474;-72
2022/05/07 04:33:44;;;;;;;11.63;5.47;;;;;;;11.00;100.00;102685.09;1924908;73;21170;-72
2022/05/07 04:36:12;;;;;;;15.10;6.58;;;;;;;10.94;100.00;102685.75;1951324;72;21095;-72
2022/05/07 04:38:39;;;;;;;11.35;6.08;;;;;;;11.04;100.00;102695.54;1952700;72;21097;-72
2022/05/07 04:41:07;;;;;;;12.18;5.72;;;;;;;11.02;100.00;102692.45;1955871;73;21043;-72
2022/05/07 04:43:34;;;;;;;8.20;4.83;;;;;;;11.02;100.00;102695.88;1955696;73;21270;-72
2022/05/07 04:46:02;;;;;;;10.55;4.97;;;;;;;11.01;100.00;102694.14;1925867;72;21152;-72
2022/05/07 04:48:29;;;;;;;10.53;4.67;;;;;;;11.19;100.00;102696.84;1951440;72;21014;-72
2022/05/07 04:50:57;;;;;;;8.25;4.53;;;;;;;11.39;100.00;102700.08;1950811;72;21009;-72
2022/05/07 04:53:24;;;;;;;9.30;4.65;;;;;;;11.55;100.00;102709.14;1934284;73;21002;-72
2022/05/07 04:55:51;;;;;;;8.38;4.47;;;;;;;11.54;100.00;102702.25;1955140;72;21161;-72
2022/05/07 04:58:21;;;;;;;9.10;4.65;;;;;;;11.65;100.00;102701.73;1954132;72;21108;-72
2022/05/07 05:00:48;;;;;;;9.20;4.83;;;;;;;11.70;100.00;102697.58;1945228;73;21588;-72
2022/05/07 05:03:17;;;;;;;8.65;4.65;;;;;;;11.58;100.00;102692.52;1945162;72;21501;-72
2022/05/07 05:05:44;;;;;;;10.48;4.35;;;;;;;11.65;100.00;102696.58;1948985;74;21179;-72
2022/05/07 05:08:12;;;;;;;8.30;4.15;;;;;;;11.75;100.00;102698.59;1948953;74;21058;-72
2022/05/07 05:10:39;;;;;;;7.67;4.33;;;;;;;11.83;100.00;102695.83;1949148;72;21521;-72
2022/05/07 05:13:07;;;;;;;8.98;5.22;;;;;;;11.73;100.00;102683.52;1948810;72;21049;-72
2022/05/07 05:15:34;;;;;;;9.73;4.92;;;;;;;11.80;100.00;102680.31;1949166;73;21172;-72
2022/05/07 05:18:02;;;;;;;8.25;4.45;;;;;;;11.80;100.00;102675.56;1948722;74;21140;-72
2022/05/07 05:20:29;;;;;;;8.33;4.42;;;;;;;11.87;100.00;102674.92;1949133;74;21111;-72
2022/05/07 05:22:57;;;;;;;7.72;4.17;;;;;;;11.95;100.00;102679.00;1949113;73;21018;-72
2022/05/07 05:25:24;;;;;;;7.87;4.40;;;;;;;11.86;100.00;102668.88;1948901;74;21066;-72
2022/05/07 05:27:51;;;;;;;7.28;4.00;;;;;;;11.95;100.00;102668.29;1949338;73;21022;-72
2022/05/07 05:30:19;;;;;;;6.85;4.00;;;;;;;11.97;100.00;102669.19;1949053;72;21845;-72
2022/05/07 05:32:46;;;;;;;8.00;4.20;;;;;;;12.06;100.00;102666.05;1949433;72;21190;-72
2022/05/07 05:35:14;;;;;;;7.37;3.37;;;;;;;12.08;100.00;102663.11;1948361;72;21113;-72
2022/05/07 05:37:41;;;;;;;6.25;4.05;;;;;;;11.97;100.00;102660.61;1949279;74;21069;-72
2022/05/07 05:40:09;;;;;;;6.25;3.77;;;;;;;12.02;100.00;102656.45;1949170;72;21050;-72
2022/05/07 05:42:37;;;;;;;7.08;3.62;;;;;;;11.94;100.00;102647.63;1949336;74;21042;-72
2022/05/07 05:45:07;;;;;;;6.53;3.70;;;;;;;12.01;100.00;102652.14;1941747;72;21089;-72
2022/05/07 05:47:34;;;;;;;5.33;3.40;;;;;;;12.12;100.00;102649.48;1941394;73;21478;-72
2022/05/07 05:50:01;;;;;;;5.30;3.50;;;;;;;12.00;100.00;102655.55;1944230;72;21097;-72
2022/05/07 05:52:29;;;;;;;7.10;3.75;;;;;;;12.20;100.00;102659.14;1948997;74;21011;-71
2022/05/07 05:54:56;;;;;;;6.53;3.55;;;;;;;12.26;100.00;102660.58;1949223;74;21101;-72
2022/05/07 05:57:23;;;;;;;5.87;2.92;;;;;;;12.38;100.00;102662.20;1948820;72;21016;-72
2022/05/07 05:59:51;;;;;;;4.67;2.47;;;;;;;12.06;100.00;102659.61;1949311;74;21015;-72
2022/05/07 06:02:18;;;;;;;4.83;3.20;;;;;;;11.96;100.00;102663.59;1962233;72;21073;-72
2022/05/07 06:04:46;;;;;;;6.62;3.77;;;;;;;12.49;100.00;102675.81;1962957;73;21077;-72
2022/05/07 06:07:13;;;;;;;5.85;3.33;;;;;;;12.31;100.00;102673.17;1962865;71;21087;-72
2022/05/07 06:09:41;;;;;;;5.47;2.90;;;;;;;12.56;100.00;102674.27;1963016;73;21116;-72
2022/05/07 06:12:09;;;;;;;5.85;3.40;;;;;;;12.83;100.00;102681.84;1976611;72;21005;-72
2022/05/07 06:14:36;;;;;;;4.70;3.00;;;;;;;12.75;100.00;102679.08;1947509;72;21138;-72
2022/05/07 06:17:04;;;;;;;6.65;3.58;;;;;;;12.91;100.00;102680.77;1960450;72;21534;-72
2022/05/07 06:19:31;;;;;;;6.08;3.77;;;;;;;13.04;100.00;102672.92;1962729;72;21226;-72
2022/05/07 06:21:59;;;;;;;7.12;3.40;;;;;;;13.19;100.00;102667.65;1962905;71;21092;-72
2022/05/07 06:27:31;;;;;;;4.55;2.92;;;;;;;13.42;100.00;102655.30;1961312;72;21097;-72
2022/05/07 06:30:03;;;;;;;6.10;3.40;;;;;;;13.56;100.00;102648.30;1927608;72;21057;-72
2022/05/07 06:32:43;;;;;;;4.53;2.98;;;;;;;13.67;100.00;102637.79;1960591;71;21065;-72
2022/05/07 06:35:11;;;;;;;4.50;3.15;;;;;;;13.48;100.00;102619.70;1959729;73;21182;-72
2022/05/07 06:37:40;;;;;;;5.17;3.27;;;;;;;13.54;100.00;102615.98;1962896;71;21528;-72
2022/05/07 06:40:09;;;;;;;6.70;3.90;;;;;;;13.93;100.00;102613.78;1963043;73;21069;-72
2022/05/07 06:42:36;;;;;;;4.55;3.10;;;;;;;13.88;100.00;102605.48;1962879;71;21091;-72
2022/05/07 06:45:05;;;;;;;9.65;4.35;;;;;;;14.32;100.00;102592.52;1963018;73;21499;-72
2022/05/07 06:47:33;;;;;;;5.78;3.95;;;;;;;14.31;100.00;102580.85;1962760;73;21563;-72
2022/05/07 06:50:01;;;;;;;4.92;3.75;;;;;;;14.21;100.00;102560.88;1924361;73;21137;-72
2022/05/07 06:52:29;;;;;;;6.30;3.77;;;;;;;14.90;100.00;102561.14;1958401;72;21151;-72
2022/05/07 06:54:56;;;;;;;6.67;3.60;;;;;;;14.66;100.00;102534.02;1958352;72;21113;-72
2022/05/07 06:57:25;;;;;;;7.65;3.98;;;;;;;14.41;100.00;102503.02;1961767;72;21022;-72
2022/05/07 06:59:52;;;;;;;6.08;3.33;;;;;;;14.44;100.00;102493.61;1962955;73;21108;-72
2022/05/07 07:02:20;;;;;;;5.25;3.47;;;;;;;15.25;100.00;102488.69;1963125;72;21173;-72
2022/05/07 07:04:48;;;;;;;6.92;4.37;;;;;;;15.26;100.00;102467.56;1962728;73;21101;-72
2022/05/07 07:07:16;;;;;;;5.78;3.65;;;;;;;15.31;100.00;102438.70;1959315;72;21487;-72
2022/05/07 07:09:43;;;;;;;8.53;4.03;;;;;;;15.91;100.00;102430.64;1958432;72;21090;-72
2022/05/07 07:12:11;;;;;;;7.03;3.98;;;;;;;15.91;100.00;102406.02;1974155;72;21084;-72
2022/05/07 07:14:39;;;;;;;6.25;3.92;;;;;;;15.53;100.00;102391.02;1954201;72;21135;-72
2022/05/07 07:17:06;;;;;;;7.75;4.12;;;;;;;15.40;100.00;102387.02;1963201;72;21108;-72
2022/05/07 07:19:34;;;;;;;7.47;3.98;;;;;;;15.42;100.00;102385.30;1962628;73;21010;-72
2022/05/07 07:22:02;;;;;;;6.30;3.98;;;;;;;15.63;100.00;102387.64;1962447;72;21198;-72
2022/05/07 07:24:29;;;;;;;6.35;4.25;;;;;;;15.63;100.00;102386.34;1963058;73;21079;-72
2022/05/07 07:26:57;;;;;;;7.25;4.10;;;;;;;15.93;100.00;102378.41;1921950;72;21009;-72
2022/05/07 07:29:25;;;;;;;6.40;3.72;;;;;;;15.92;100.00;102370.61;1960925;72;21131;-72
2022/05/07 07:31:53;;;;;;;8.05;3.50;;;;;;;16.34;100.00;102370.92;1958695;72;21081;-72
2022/05/07 07:34:21;;;;;;;8.88;4.60;;;;;;;16.51;100.00;102355.00;1921486;73;21114;-72
2022/05/07 07:36:53;;;;;;;5.92;3.20;;;;;;;16.12;100.00;102348.77;1958316;72;21097;-72
2022/05/07 07:39:20;;;;;;;4.72;3.42;;;;;;;16.15;100.00;102343.56;1958086;72;21764;-72
2022/05/07 07:41:48;;;;;;;5.35;3.40;;;;;;;17.23;100.00;102339.67;1958368;72;21127;-72
2022/05/07 07:44:15;;;;;;;8.03;3.77;;;;;;;16.83;100.00;102326.58;1957956;72;21104;-72
2022/05/07 07:49:28;;;;;;;4.03;2.85;;;;;;;17.31;100.00;102312.42;1928341;72;21093;-72
2022/05/07 07:51:56;;;;;;;5.45;3.08;;;;;;;16.95;100.00;102301.94;1923992;72;21009;-72
2022/05/07 07:54:23;;;;;;;5.47;3.08;;;;;;;16.46;100.00;102310.02;1958096;72;21123;-72
2022/05/07 07:56:51;;;;;;;4.25;2.85;;;;;;;16.95;100.00;102307.14;1960285;72;21086;-72
2022/05/07 07:59:18;;;;;;;5.30;3.30;;;;;;;17.07;100.00;102304.16;1962989;73;21003;-72
2022/05/07 08:01:46;;;;;;;5.40;3.10;;;;;;;17.06;100.00;102297.25;1961079;72;21058;-72
2022/05/07 08:04:13;;;;;;;5.83;2.92;;;;;;;16.98;100.00;102297.18;1955981;73;21034;-72
2022/05/07 08:06:41;;;;;;;4.12;2.50;;;;;;;16.92;100.00;102298.48;1956027;72;21089;-72
2022/05/07 08:11:56;;;;;;;4.85;2.10;;;;;;;16.44;100.00;102309.58;1955903;72;21057;-72
2022/05/07 08:14:23;;;;;;;3.83;2.10;;;;;;;16.80;100.00;102298.89;1955959;71;21062;-72
2022/05/07 08:16:50;;;;;;;5.75;2.42;;;;;;;16.42;100.00;102298.31;1958186;72;21069;-72
2022/05/07 08:19:18;;;;;;;2.95;1.47;;;;;;;16.76;100.00;102294.55;1955798;72;21095;-72
2022/05/07 08:21:46;;;;;;;2.67;1.45;;;;;;;17.59;100.00;102285.14;1955790;72;21085;-72
2022/05/07 08:24:13;;;;;;;4.25;1.42;;;;;;;17.77;100.00;102268.66;1955792;73;21061;-72
2022/05/07 08:26:41;;;;;;;2.22;1.10;;;;;;;18.04;100.00;102251.67;1955609;72;21204;-72
2022/05/07 08:29:09;;;;;;;2.00;1.30;;;;;;;18.21;100.00;102241.67;1952780;72;21109;-72
2022/05/07 08:31:37;;;;;;;3.77;1.15;;;;;;;17.72;100.00;102239.63;1955935;72;21073;-72
2022/05/07 08:34:08;;;;;;;3.12;1.05;;;;;;;17.72;100.00;102239.63;1955640;72;21134;-72
2022/05/07 08:36:35;;;;;;;2.22;1.42;;;;;;;17.54;100.00;102229.27;1955667;72;21078;-72
2022/05/07 08:39:02;;;;;;;2.98;1.35;;;;;;;18.25;100.00;102233.86;1955964;73;21128;-72
2022/05/07 08:41:30;;;;;;;1.65;1.12;;;;;;;18.44;100.00;102218.12;1955904;72;21033;-72
2022/05/07 08:43:57;;;;;;;1.55;0.98;;;;;;;17.98;100.00;102213.98;1955968;72;21462;-72
2022/05/07 08:46:24;;;;;;;1.35;1.07;;;;;;;17.89;100.00;102218.34;1955401;73;21104;-72
2022/05/07 08:48:52;;;;;;;1.80;1.02;;;;;;;18.04;100.00;102221.77;1927338;72;21075;-72
2022/05/07 08:51:22;;;;;;;3.22;1.27;;;;;;;18.09;100.00;102223.09;1952291;72;20994;-72
2022/05/07 08:53:53;;;;;;;1.50;1.00;;;;;;;18.20;100.00;102222.58;1955931;72;21539;-72
2022/05/07 08:56:21;;;;;;;3.00;1.42;;;;;;;18.51;100.00;102213.78;1955847;71;21086;-72
2022/05/07 08:58:53;;;;;;;2.35;1.10;;;;;;;18.28;100.00;102203.05;1952975;72;21114;-72
2022/05/07 09:01:21;;;;;;;4.90;1.15;;;;;;;18.10;100.00;102209.21;1952741;72;21018;-72
2022/05/07 09:03:50;;;;;;;1.20;1.00;;;;;;;17.74;100.00;102208.86;1961401;72;21162;-72
2022/05/07 09:06:23;;;;;;;2.35;1.10;;;;;;;17.53;100.00;102211.95;1962888;73;21073;-72
2022/05/07 09:08:52;;;;;;;2.25;1.40;;;;;;;17.59;100.00;102210.20;1962018;72;21158;-72
2022/05/07 09:11:20;;;;;;;3.47;1.30;;;;;;;17.46;100.00;102214.13;1961612;72;21084;-72
2022/05/07 09:13:48;;;;;;;2.50;1.72;;;;;;;17.73;100.00;102216.66;1963006;73;21037;-72
2022/05/07 09:16:16;;;;;;;4.20;2.15;;;;;;;18.21;100.00;102208.73;1926276;73;21026;-72
2022/05/07 09:18:49;;;;;;;2.92;1.65;;;;;;;18.02;100.00;102204.87;1962935;72;21017;-72
2022/05/07 09:21:19;;;;;;;2.12;1.50;;;;;;;18.17;100.00;102197.91;1960464;72;21132;-72
2022/05/07 09:23:58;;;;;;;4.83;1.80;;;;;;;18.09;100.00;102204.44;1959260;72;21085;-72
2022/05/07 09:26:33;;;;;;;1.95;1.40;;;;;;;18.01;100.00;102204.88;1957410;71;21026;-72
2022/05/07 09:29:03;;;;;;;2.42;1.55;;;;;;;18.46;100.00;102205.98;1962928;73;21680;-72
2022/05/07 09:31:32;;;;;;;3.77;1.32;;;;;;;18.26;100.00;102197.86;1922535;72;21048;-72
2022/05/07 09:36:48;;;;;;;1.35;1.25;;;;;;;17.66;100.00;102192.01;1961995;72;21135;-72
2022/05/07 09:39:15;;;;;;;5.35;1.67;;;;;;;18.08;100.00;102197.91;1963098;73;21095;-72
2022/05/07 09:41:43;;;;;;;3.08;1.67;;;;;;;18.09;100.00;102193.19;1962870;72;21461;-72
2022/05/07 09:44:12;;;;;;;3.60;1.40;;;;;;;18.14;100.00;102184.92;1962972;73;21132;-72
2022/05/07 09:46:40;;;;;;;2.40;1.00;;;;;;;18.07;100.00;102188.38;1921313;73;21025;-72
2022/05/07 09:49:08;;;;;;;2.30;1.32;;;;;;;18.61;100.00;102183.35;1958107;72;21028;-72
2022/05/07 09:51:36;;;;;;;4.33;1.30;;;;;;;18.78;100.00;102177.56;1959680;72;21575;-72
2022/05/07 09:59:35;;;;;;;5.55;1.30;;;;;;;18.55;100.00;102174.69;1962552;73;21522;-72
2022/05/07 10:02:11;;;;;;;3.55;1.80;;;;;;;18.53;100.00;102170.38;1962911;73;21174;-72
2022/05/07 10:05:16;;;;;;;4.25;1.30;;;;;;;18.42;100.00;102170.45;1962378;72;21510;-72
2022/05/07 10:07:53;;;;;;;6.40;1.42;;;;;;;18.43;100.00;102169.14;1958044;72;21029;-72
2022/05/07 10:10:25;;;;;;;1.50;1.20;;;;;;;19.07;100.00;102154.34;1961591;72;21104;-72
2022/05/07 10:12:55;;;;;;;2.75;1.42;;;;;;;18.95;100.00;102159.64;1963184;72;21213;-72
2022/05/07 10:15:25;;;;;;;2.05;1.20;;;;;;;19.59;100.00;102140.33;1943288;72;21081;-72
2022/05/07 10:18:03;;;;;;;2.90;1.37;;;;;;;19.27;100.00;102145.93;1958518;72;21001;-72
2022/05/07 10:20:39;;;;;;;1.75;1.30;;;;;;;19.58;100.00;102134.70;1958194;72;21553;-72
2022/05/07 10:23:12;;;;;;;4.10;1.70;;;;;;;19.78;100.00;102115.77;1949997;72;21045;-72
2022/05/07 10:25:43;;;;;;;10.25;2.50;;;;;;;18.95;100.00;102131.86;1958496;72;21117;-72
2022/05/07 10:28:15;;;;;;;3.27;2.00;;;;;;;18.89;100.00;102144.08;1961601;71;21127;-72
2022/05/07 10:30:58;;;;;;;3.02;1.37;;;;;;;18.58;100.00;102133.91;1962853;73;21042;-72
2022/05/07 10:33:24;;;;;;;4.95;1.75;;;;;;;19.52;100.00;102124.80;1961291;72;21780;-72
2022/05/07 10:35:58;;;;;;;2.30;1.30;;;;;;;19.52;100.00;102124.80;1963058;72;21073;-72
2022/05/07 10:38:26;;;;;;;;;;;;;;;21.15;100.00;102121.53;1965641;73;21512;-72
2022/05/07 10:41:02;;;;;;;2.92;1.70;;;;;;;21.13;100.00;102113.72;1963119;73;20116;-73
2022/05/07 10:43:35;;;;;;;2.75;1.70;;;;;;;21.49;100.00;102093.41;1926177;73;21037;-73
2022/05/07 10:46:03;;;;;;;;;;;;;;;21.65;100.00;102102.23;1965846;72;21518;-72
2022/05/07 10:48:50;;;;;;;3.40;1.20;;;;;;;22.71;100.00;102097.66;1962867;73;20139;-72
2022/05/07 10:51:36;;;;;;;3.27;1.75;;;;;;;21.21;100.00;102097.04;1962702;72;21086;-72
2022/05/07 10:54:18;;;;;;;2.67;1.35;;;;;;;20.37;100.00;102103.23;1962967;72;21131;-72
2022/05/07 10:56:51;;;;;;;3.70;1.37;;;;;;;19.26;100.00;102097.28;1959952;73;21057;-72
2022/05/07 10:59:20;;;;;;;3.77;1.27;;;;;;;19.84;100.00;102099.62;1925687;73;21487;-72
2022/05/07 11:01:47;;;;;;;4.45;1.22;;;;;;;20.66;100.00;102084.91;1962714;73;21143;-72
2022/05/07 11:04:18;;;;;;;1.85;1.10;;;;;;;21.61;100.00;102079.22;1962918;72;21073;-72
2022/05/07 11:06:52;;;;;;;4.20;1.32;;;;;;;21.59;100.00;102080.16;1922609;73;21117;-73
2022/05/07 11:09:27;;;;;;;1.70;1.17;;;;;;;21.75;100.00;102072.84;1963014;72;21037;-72
2022/05/07 11:11:57;;;;;;;3.83;2.15;;;;;;;20.91;100.00;102087.14;1935369;72;21009;-73
2022/05/07 11:14:35;;;;;;;5.10;1.40;;;;;;;21.43;100.00;102070.45;1963007;72;21218;-72
2022/05/07 11:17:04;;;;;;;4.10;1.20;;;;;;;21.58;100.00;102066.20;1963090;72;21073;-72
2022/05/07 11:19:33;;;;;;;2.22;1.10;;;;;;;21.15;100.00;102071.89;1963067;71;21037;-72
2022/05/07 11:22:02;;;;;;;2.02;1.77;;;;;;;20.63;100.00;102073.23;1962881;72;21045;-72
2022/05/07 11:24:31;;;;;;;3.72;1.37;;;;;;;20.05;100.00;102071.97;1922710;73;21069;-72
2022/05/07 11:27:00;;;;;;;1.67;1.20;;;;;;;20.01;100.00;102068.99;1962941;72;21542;-72
2022/05/07 11:29:28;;;;;;;1.75;1.05;;;;;;;20.01;100.00;102068.99;1963049;73;21538;-72
2022/05/07 11:31:57;;;;;;;1.77;1.20;;;;;;;19.84;100.00;102052.69;1962950;72;21110;-72
2022/05/07 11:34:33;;;;;;;2.58;1.67;;;;;;;20.39;100.00;102064.94;1923008;73;21045;-72
2022/05/07 11:37:22;;;;;;;1.90;1.22;;;;;;;20.39;100.00;102064.94;1958419;72;21053;-72
2022/05/07 11:39:59;;;;;;;1.52;1.00;;;;;;;20.58;100.00;102051.12;1956880;72;21082;-72
2022/05/07 11:42:38;;;;;;;2.92;1.12;;;;;;;20.58;100.00;102051.12;1961011;72;21470;-72
2022/05/07 11:45:27;;;;;;;1.87;1.25;;;;;;;20.67;100.00;102053.14;1960906;72;21491;-72
2022/05/07 11:48:05;;;;;;;2.12;1.42;;;;;;;20.60;100.00;102048.02;1963046;73;21614;-72